createdAt,value
2023-06-22T00:02:19.567Z,77.22
2023-06-22T00:07:25.062Z,77.54
2023-06-22T00:12:32.564Z,79.45
2023-06-22T00:17:38.015Z,78.36
2023-06-22T00:22:42.278Z,79.27
2023-06-22T00:27:46.602Z,78.84
2023-06-22T00:32:53.635Z,79.31
2023-06-22T00:38:01.869Z,79.33
2023-06-22T00:43:08.138Z,79.26
2023-06-22T00:48:16.228Z,78.12
2023-06-22T00:53:23.740Z,78.13
2023-06-22T00:58:28.864Z,78.36
2023-06-22T01:03:34.642Z,78.04
2023-06-22T01:08:51.429Z,78.92
2023-06-22T01:14:02.585Z,79.21
2023-06-22T01:19:22.623Z,78.46
2023-06-22T01:24:33.215Z,78.94
2023-06-22T01:29:41.300Z,78.07
2023-06-22T01:34:46.306Z,78.03
2023-06-22T01:39:50.926Z,79.04
2023-06-22T01:44:56.900Z,79.79
2023-06-22T01:50:01.264Z,79.77
2023-06-22T01:55:07.290Z,79.49
2023-06-22T02:00:21.254Z,79.35
2023-06-22T02:05:28.442Z,79.69
2023-06-22T02:10:34.952Z,79.72
2023-06-22T02:15:40.876Z,79.42
2023-06-22T02:20:45.580Z,79.35
2023-06-22T02:25:53.432Z,79.73
2023-06-22T02:31:01.118Z,79.43
2023-06-22T02:36:10.371Z,79.60
2023-06-22T02:41:15.395Z,79.32
2023-06-22T02:46:22.700Z,79.56
2023-06-22T02:51:27.910Z,79.90
2023-06-22T02:56:32.068Z,80.69
2023-06-22T03:01:42.173Z,80.03
2023-06-22T03:07:15.551Z,80.97
2023-06-22T03:12:20.697Z,80.83
2023-06-22T03:17:31.040Z,82.34
2023-06-22T03:22:35.502Z,82.56
2023-06-22T03:27:39.698Z,82.09
2023-06-22T03:32:48.532Z,81.20
2023-06-22T03:37:52.901Z,80.93
2023-06-22T03:42:58.569Z,82.97
2023-06-22T03:48:05.375Z,81.61
2023-06-22T03:53:10.572Z,81.71
2023-06-22T03:58:14.884Z,81.38
2023-06-22T04:03:21.369Z,82.06
2023-06-22T04:08:26.345Z,81.74
2023-06-22T04:13:32.409Z,81.33
2023-06-22T04:18:39.305Z,81.67
2023-06-22T04:23:44.516Z,80.84
2023-06-22T04:28:52.841Z,79.26
2023-06-22T04:33:58.636Z,78.50
2023-06-22T04:39:06.713Z,77.32
2023-06-22T04:44:12.501Z,77.47
2023-06-22T04:49:19.506Z,77.09
2023-06-22T04:54:23.980Z,78.24
2023-06-22T04:59:31.214Z,78.26
2023-06-22T05:04:40.806Z,78.33
2023-06-22T05:09:45.575Z,77.20
2023-06-22T05:14:50.192Z,76.91
2023-06-22T05:19:56.262Z,77.10
2023-06-22T05:25:00.474Z,76.72
2023-06-22T05:30:06.036Z,77.32
2023-06-22T05:35:12.288Z,77.51
2023-06-22T05:40:17.349Z,77.74
2023-06-22T05:45:21.463Z,78.01
2023-06-22T05:50:27.393Z,76.84
2023-06-22T05:55:35.590Z,75.65
2023-06-22T06:00:40.544Z,74.58
2023-06-22T06:05:47.288Z,74.12
2023-06-22T06:10:54.622Z,73.54
2023-06-22T06:15:58.792Z,73.50
2023-06-22T06:21:04.723Z,73.33
2023-06-22T06:26:09.756Z,72.46
2023-06-22T06:31:18.380Z,72.18
2023-06-22T06:36:24.398Z,71.71
2023-06-22T06:41:31.954Z,71.46
2023-06-22T06:46:37.113Z,70.77
2023-06-22T06:51:43.743Z,71.05
2023-06-22T06:56:49.535Z,71.08
2023-06-22T07:01:54.111Z,70.21
2023-06-22T07:07:01.488Z,68.75
2023-06-22T07:12:06.569Z,66.55
2023-06-22T07:17:11.819Z,66.49
2023-06-22T07:22:17.947Z,66.19
2023-06-22T07:27:23.404Z,67.39
2023-06-22T07:32:30.095Z,68.46
2023-06-22T07:37:36.470Z,68.43
2023-06-22T07:42:42.196Z,68.06
2023-06-22T07:47:49.566Z,67.81
2023-06-22T07:52:56.808Z,68.24
2023-06-22T07:58:02.026Z,69.95
2023-06-22T08:03:06.595Z,70.23
2023-06-22T08:08:18.243Z,67.34
2023-06-22T08:13:23.023Z,64.72
2023-06-22T08:18:27.051Z,66.69
2023-06-22T08:23:32.850Z,64.83
2023-06-22T08:28:37.650Z,61.91
2023-06-22T08:33:49.438Z,62.19
2023-06-22T08:38:59.028Z,59.97
2023-06-22T08:44:05.189Z,59.71
2023-06-22T08:49:11.141Z,58.72
2023-06-22T08:54:20.164Z,56.20
2023-06-22T08:59:24.349Z,54.29
2023-06-22T09:04:30.374Z,52.39
2023-06-22T09:09:37.261Z,51.77
2023-06-22T09:14:43.283Z,49.47
2023-06-22T09:19:49.071Z,49.78
2023-06-22T09:24:56.207Z,48.98
2023-06-22T09:30:01.978Z,49.04
2023-06-22T09:35:08.390Z,47.92
2023-06-22T09:40:17.265Z,46.97
2023-06-22T09:45:23.321Z,46.06
2023-06-22T09:50:27.707Z,43.03
2023-06-22T09:55:33.765Z,44.57
2023-06-22T10:00:38.576Z,44.99
2023-06-22T10:05:43.734Z,45.79
2023-06-22T10:10:51.835Z,44.53
2023-06-22T10:15:58.507Z,44.34
2023-06-22T10:21:03.285Z,39.12
2023-06-22T10:26:09.490Z,36.48
2023-06-22T10:31:15.237Z,35.23
2023-06-22T10:36:19.392Z,35.21
2023-06-22T10:41:29.117Z,34.70
2023-06-22T10:46:33.912Z,34.10
2023-06-22T10:51:38.393Z,34.00
2023-06-22T10:56:45.117Z,33.86
2023-06-22T11:01:49.180Z,37.45
2023-06-22T11:06:53.578Z,36.80
2023-06-22T11:12:00.839Z,36.67
2023-06-22T11:17:06.276Z,36.11
2023-06-22T11:22:10.661Z,35.47
2023-06-22T11:27:16.261Z,35.92
2023-06-22T11:32:20.987Z,36.70
2023-06-22T11:37:26.078Z,39.14
2023-06-22T11:42:33.391Z,38.15
2023-06-22T11:47:37.756Z,39.59
2023-06-22T11:52:42.937Z,38.69
2023-06-22T11:58:00.041Z,38.92
2023-06-22T12:03:04.548Z,39.66
2023-06-22T12:08:09.005Z,38.68
2023-06-22T12:13:15.697Z,40.75
2023-06-22T12:18:22.546Z,40.80
2023-06-22T12:23:27.663Z,41.84
2023-06-22T12:28:34.080Z,43.68
2023-06-22T12:33:38.164Z,44.39
2023-06-22T12:38:42.505Z,45.62
2023-06-22T12:43:48.964Z,45.56
2023-06-22T12:48:57.226Z,45.37
2023-06-22T12:54:01.117Z,45.40
2023-06-22T12:59:07.867Z,45.75
2023-06-22T13:04:14.478Z,45.85
2023-06-22T13:09:23.229Z,44.81
2023-06-22T13:14:29.330Z,44.66
2023-06-22T13:19:34.100Z,44.33
2023-06-22T13:24:38.386Z,42.64
2023-06-22T13:29:44.065Z,43.45
2023-06-22T13:34:49.037Z,41.90
2023-06-22T13:39:53.861Z,40.28
2023-06-22T13:44:59.469Z,39.88
2023-06-22T13:50:04.407Z,41.35
2023-06-22T13:55:11.205Z,40.90
2023-06-22T14:00:18.099Z,41.69
2023-06-22T14:05:24.963Z,41.38
2023-06-22T14:10:29.461Z,41.07
2023-06-22T14:15:36.354Z,40.48
2023-06-22T14:20:41.270Z,40.63
2023-06-22T14:25:46.105Z,41.57
2023-06-22T14:30:52.734Z,41.84
2023-06-22T14:35:56.985Z,42.96
2023-06-22T14:41:13.357Z,43.09
2023-06-22T14:46:21.389Z,43.71
2023-06-22T14:51:26.674Z,44.74
2023-06-22T14:56:32.854Z,46.35
2023-06-22T15:01:42.259Z,48.10
2023-06-22T15:06:46.903Z,48.61
2023-06-22T15:11:52.992Z,49.31
2023-06-22T15:16:58.565Z,49.67
2023-06-22T15:22:03.209Z,48.84
2023-06-22T15:27:08.700Z,49.04
2023-06-22T15:32:15.840Z,48.93
2023-06-22T15:37:20.494Z,49.38
2023-06-22T15:42:24.736Z,49.50
2023-06-22T15:47:30.987Z,50.08
2023-06-22T15:52:35.114Z,49.67
2023-06-22T15:57:39.241Z,49.68
2023-06-22T16:02:46.733Z,50.18
2023-06-22T16:07:51.286Z,50.10
2023-06-22T16:12:56.226Z,49.80
2023-06-22T16:18:02.708Z,49.78
2023-06-22T16:23:06.997Z,49.38
2023-06-22T16:28:11.742Z,50.24
2023-06-22T16:33:17.754Z,51.07
2023-06-22T16:38:21.983Z,50.89
2023-06-22T16:43:26.126Z,51.00
2023-06-22T16:48:31.630Z,51.36
2023-06-22T16:53:36.530Z,51.53
2023-06-22T16:58:44.641Z,50.99
2023-06-22T17:04:02.278Z,51.90
2023-06-22T17:09:08.225Z,52.50
2023-06-22T17:14:12.316Z,52.54
2023-06-22T17:19:18.247Z,52.74
2023-06-22T17:24:23.156Z,53.35
2023-06-22T17:29:33.715Z,53.82
2023-06-22T17:34:41.794Z,54.72
2023-06-22T17:39:56.042Z,55.53
2023-06-22T17:45:04.590Z,55.35
2023-06-22T17:50:12.670Z,57.21
2023-06-22T17:55:17.016Z,60.60
2023-06-22T18:00:22.378Z,60.51
2023-06-22T18:05:35.998Z,61.71
2023-06-22T18:10:42.813Z,62.37
2023-06-22T18:15:47.625Z,62.12
2023-06-22T18:20:54.538Z,64.40
2023-06-22T18:26:00.138Z,64.35
2023-06-22T18:31:05.902Z,65.51
2023-06-22T18:36:13.708Z,66.06
2023-06-22T18:41:27.378Z,68.77
2023-06-22T18:52:08.423Z,68.54
2023-06-22T18:57:18.316Z,68.26
2023-06-22T19:02:47.885Z,68.07
2023-06-22T19:08:06.404Z,71.00
2023-06-22T19:13:31.064Z,69.78
2023-06-22T19:18:36.569Z,70.51
2023-06-22T19:23:43.925Z,70.70
2023-06-22T19:28:49.846Z,70.67
2023-06-22T19:33:56.769Z,70.98
2023-06-22T19:39:02.877Z,71.40
2023-06-22T19:44:07.287Z,72.89
2023-06-22T19:49:11.517Z,72.80
2023-06-22T19:54:19.125Z,73.63
2023-06-22T19:59:26.859Z,73.64
2023-06-22T20:04:33.642Z,74.18
2023-06-22T20:09:43.715Z,73.49
2023-06-22T20:14:48.113Z,73.62
2023-06-22T20:19:57.829Z,73.67
2023-06-22T20:25:03.748Z,74.12
2023-06-22T20:30:17.847Z,75.17
2023-06-22T20:35:24.525Z,74.80
2023-06-22T20:40:30.953Z,75.24
2023-06-22T20:45:37.756Z,76.89
2023-06-22T20:50:42.483Z,76.12
2023-06-22T20:55:48.267Z,77.23
2023-06-22T21:00:53.078Z,77.24
2023-06-22T21:05:58.566Z,77.39
2023-06-22T21:11:04.596Z,75.97
2023-06-22T21:16:10.857Z,76.41
2023-06-22T21:21:14.952Z,76.00
2023-06-22T21:26:20.493Z,75.66
2023-06-22T21:31:26.092Z,77.29
2023-06-22T21:36:30.594Z,79.76
2023-06-22T21:41:36.296Z,78.34
2023-06-22T21:46:40.552Z,78.36
2023-06-22T21:51:44.810Z,78.19
2023-06-22T21:56:51.782Z,77.99
2023-06-22T22:01:56.647Z,78.44
2023-06-22T22:12:30.713Z,78.26
2023-06-22T22:17:36.564Z,77.78
2023-06-22T22:22:40.727Z,77.78
2023-06-22T22:27:46.301Z,78.06
2023-06-22T22:32:50.439Z,77.67
2023-06-22T22:37:55.947Z,79.89
2023-06-22T22:43:02.431Z,79.55
2023-06-22T22:48:07.701Z,77.92
2023-06-22T22:53:12.003Z,78.84
2023-06-22T22:58:17.604Z,78.41
2023-06-22T23:03:22.261Z,79.74
2023-06-22T23:08:27.931Z,80.88
2023-06-22T23:13:33.751Z,80.21
2023-06-22T23:18:38.326Z,81.65
2023-06-22T23:23:42.529Z,80.71
2023-06-22T23:28:48.288Z,81.03
2023-06-22T23:33:52.838Z,79.99
2023-06-22T23:38:58.041Z,79.18
2023-06-22T23:44:03.982Z,80.67
2023-06-22T23:49:08.906Z,80.37
2023-06-22T23:54:13.353Z,80.09
2023-06-22T23:59:18.942Z,80.18
